Time;durP1;ratioP1;P1;durP2;ratioP2;P2;SDS_P1;SDS_P2;PMS_P1;PMS_P2;Temp;Humidity;BMP_temperature;BMP_pressure;BME280_temperature;BME280_humidity;BME280_pressure;Samples;Min_cycle;Max_cycle;Signal;HPM_P1;HPM_P2
2022/12/22 03:29:25;;;;;;;25.37;21.25;;;9.00;87.20;;;;;;10903866;32;20084;-73
2022/12/22 03:35:27;;;;;;;20.42;16.67;;;9.10;87.10;;;;;;10901578;32;20058;-74
2022/12/22 03:47:50;;;;;;;22.05;17.27;;;8.70;87.10;;;;;;10909127;32;20390;-73
2022/12/22 03:53:52;;;;;;;17.48;13.85;;;8.50;87.30;;;;;;10910523;32;20046;-74
2022/12/22 03:59:54;;;;;;;24.45;17.52;;;8.50;87.60;;;;;;10910527;32;20024;-74
2022/12/22 04:05:56;;;;;;;23.95;18.15;;;8.60;87.60;;;;;;10907640;32;20403;-73
2022/12/22 04:18:18;;;;;;;23.65;18.10;;;8.80;87.20;;;;;;10908604;32;20064;-73
2022/12/22 04:24:21;;;;;;;24.98;20.25;;;9.10;87.20;;;;;;10908215;32;20050;-74
2022/12/22 04:30:23;;;;;;;35.28;26.75;;;9.30;86.90;;;;;;10908807;32;20015;-73
2022/12/22 04:36:25;;;;;;;35.63;25.77;;;9.30;86.70;;;;;;10909291;32;20330;-74
2022/12/22 04:42:26;;;;;;;30.77;25.12;;;9.40;86.60;;;;;;10906574;32;20360;-73
2022/12/22 04:48:29;;;;;;;42.10;32.95;;;9.70;86.50;;;;;;10908876;32;20428;-73
2022/12/22 04:54:32;;;;;;;40.70;30.77;;;9.80;86.20;;;;;;10908657;32;20042;-73
2022/12/22 05:00:34;;;;;;;37.90;31.05;;;9.90;86.30;;;;;;10907202;32;20047;-73
2022/12/22 05:06:37;;;;;;;41.22;30.08;;;9.90;86.40;;;;;;10905029;32;20085;-74
2022/12/22 05:12:54;;;;;;;39.05;31.35;;;10.00;86.10;;;;;;10907457;32;20027;-74
2022/12/22 05:18:56;;;;;;;27.50;22.25;;;10.00;85.80;;;;;;10903754;32;20043;-74
2022/12/22 05:24:58;;;;;;;26.37;22.67;;;9.90;85.50;;;;;;10907550;32;20042;-73
2022/12/22 05:31:13;;;;;;;41.65;32.25;;;9.70;85.90;;;;;;10904290;32;20394;-73
2022/12/22 05:37:15;;;;;;;27.35;21.58;;;9.70;86.00;;;;;;10907120;32;20102;-74
2022/12/22 05:43:17;;;;;;;35.22;27.30;;;10.00;85.60;;;;;;10906923;32;20393;-74
2022/12/22 05:49:19;;;;;;;26.48;20.83;;;10.00;85.50;;;;;;10906724;32;20049;-74
2022/12/22 05:55:21;;;;;;;28.00;20.90;;;10.10;85.30;;;;;;10907041;32;20015;-74
2022/12/22 06:01:23;;;;;;;28.70;21.48;;;9.80;85.20;;;;;;10905432;32;20023;-74
2022/12/22 06:07:25;;;;;;;35.30;26.50;;;9.50;85.60;;;;;;10905873;32;20019;-74
2022/12/22 06:13:29;;;;;;;29.33;22.42;;;9.60;86.40;;;;;;10905911;32;20024;-74
2022/12/22 06:19:32;;;;;;;26.58;20.25;;;9.90;85.90;;;;;;10904540;32;20294;-74
2022/12/22 06:25:34;;;;;;;37.47;28.67;;;9.60;85.80;;;;;;10905469;32;20023;-73
2022/12/22 06:31:36;;;;;;;41.90;33.88;;;9.60;86.60;;;;;;10905137;32;20050;-74
2022/12/22 06:37:38;;;;;;;36.13;25.52;;;10.00;86.10;;;;;;10903756;32;20065;-73
2022/12/22 06:43:40;;;;;;;26.75;22.25;;;10.10;85.30;;;;;;10904904;32;20344;-74
2022/12/22 06:49:42;;;;;;;39.33;27.00;;;9.70;85.60;;;;;;10904681;32;20027;-74
2022/12/22 06:55:46;;;;;;;30.17;22.15;;;9.40;86.30;;;;;;10904476;32;20020;-73
2022/12/22 07:01:49;;;;;;;43.53;35.65;;;9.80;86.50;;;;;;10904269;32;20046;-76
2022/12/22 07:07:56;;;;;;;33.42;25.48;;;10.30;86.40;;;;;;10899910;32;20410;-76
2022/12/22 07:13:58;;;;;;;44.20;29.40;;;10.40;85.60;;;;;;10898136;32;20054;-76
2022/12/22 07:20:00;;;;;;;53.40;38.17;;;10.20;85.90;;;;;;10904813;32;20031;-76
2022/12/22 07:26:03;;;;;;;44.22;30.15;;;10.20;86.00;;;;;;10907139;32;20062;-76
2022/12/22 07:32:05;;;;;;;45.00;34.30;;;9.90;85.70;;;;;;10910252;32;20045;-76
2022/12/22 07:38:07;;;;;;;39.42;29.85;;;9.50;86.20;;;;;;10897497;32;20069;-76
2022/12/22 07:44:09;;;;;;;42.22;34.35;;;9.60;86.50;;;;;;10911002;32;20345;-76
2022/12/22 07:50:24;;;;;;;41.88;31.42;;;9.70;86.70;;;;;;10910197;32;20031;-76
2022/12/22 07:56:26;;;;;;;34.60;26.08;;;10.10;86.40;;;;;;10910570;32;20068;-76
2022/12/22 08:02:28;;;;;;;49.53;38.97;;;9.90;85.90;;;;;;10896876;32;20020;-76
2022/12/22 08:08:32;;;;;;;39.53;34.85;;;9.90;86.50;;;;;;10908103;32;20421;-76
2022/12/22 08:14:34;;;;;;;40.20;35.38;;;9.90;86.10;;;;;;10907702;32;20040;-76
2022/12/22 08:20:38;;;;;;;42.70;34.20;;;9.70;86.50;;;;;;10916417;27;20054;-75
2022/12/22 08:26:44;;;;;;;30.75;24.05;;;9.90;86.70;;;;;;10909626;32;20027;-75
2022/12/22 08:32:49;;;;;;;34.72;25.37;;;10.10;86.40;;;;;;10907487;32;20046;-76
2022/12/22 08:38:51;;;;;;;31.80;24.95;;;10.20;86.10;;;;;;10907970;32;20046;-76
2022/12/22 08:44:53;;;;;;;40.00;28.58;;;9.90;86.20;;;;;;10908817;32;20432;-76
2022/12/22 08:50:55;;;;;;;31.90;25.12;;;9.80;86.40;;;;;;10908651;32;20034;-76
2022/12/22 08:56:57;;;;;;;39.45;30.45;;;9.60;86.60;;;;;;10908512;32;20055;-76
2022/12/22 09:02:59;;;;;;;32.97;26.27;;;9.80;87.10;;;;;;10908295;32;20034;-76
2022/12/22 09:09:04;;;;;;;35.25;24.90;;;10.20;87.00;;;;;;10907734;32;20015;-76
2022/12/22 09:15:08;;;;;;;43.67;32.22;;;10.30;86.70;;;;;;10938300;32;20045;-76
2022/12/22 09:21:10;;;;;;;37.75;30.25;;;10.20;86.50;;;;;;10949540;32;20405;-76
2022/12/22 09:27:12;;;;;;;37.33;27.23;;;10.10;86.90;;;;;;10943950;32;20031;-76
2022/12/22 09:33:14;;;;;;;37.55;26.30;;;10.00;87.00;;;;;;10943493;32;20031;-76
2022/12/22 09:39:16;;;;;;;30.90;23.33;;;9.90;87.00;;;;;;10944776;32;20015;-76
2022/12/22 09:45:19;;;;;;;40.20;30.95;;;9.80;87.30;;;;;;10943634;32;20073;-73
2022/12/22 09:51:22;;;;;;;32.78;24.73;;;10.10;87.70;;;;;;10944407;32;20042;-73
2022/12/22 09:57:31;;;;;;;32.30;26.40;;;10.10;87.50;;;;;;10948684;32;20018;-73
2022/12/22 10:03:34;;;;;;;38.67;31.48;;;10.20;87.40;;;;;;10948295;32;20015;-73
2022/12/22 10:09:36;;;;;;;39.13;29.23;;;10.00;87.20;;;;;;10941399;32;20030;-73
2022/12/22 10:15:40;;;;;;;26.48;21.23;;;10.20;87.60;;;;;;10942073;32;20045;-74
2022/12/22 10:21:42;;;;;;;35.90;24.73;;;10.10;87.30;;;;;;10943125;32;20064;-74
2022/12/22 10:27:45;;;;;;;37.88;29.20;;;10.00;87.60;;;;;;10942967;32;20020;-73
2022/12/22 10:33:50;;;;;;;40.92;29.17;;;10.30;87.90;;;;;;10942703;32;20432;-74
2022/12/22 10:39:53;;;;;;;44.60;29.63;;;10.30;87.20;;;;;;10942358;32;20397;-73
2022/12/22 10:45:57;;;;;;;35.60;24.00;;;10.10;87.40;;;;;;10940653;32;20038;-73
2022/12/22 10:52:24;;;;;;;34.17;23.42;;;10.00;87.50;;;;;;10941963;32;20015;-73
2022/12/22 10:58:27;;;;;;;29.00;20.35;;;10.00;87.70;;;;;;10941997;32;20011;-73
2022/12/22 11:04:29;;;;;;;32.28;24.17;;;10.10;87.60;;;;;;10941951;32;20373;-73
2022/12/22 11:11:24;;;;;;;41.47;30.23;;;10.10;87.30;;;;;;10940440;32;20045;-74
2022/12/22 11:18:03;;;;;;;39.70;30.83;;;10.20;87.90;;;;;;10939003;32;20015;-73
2022/12/22 11:24:23;;;;;;;40.30;31.80;;;10.60;87.90;;;;;;10941131;32;20043;-74
2022/12/22 11:30:35;;;;;;;26.23;20.55;;;11.00;88.00;;;;;;10914594;32;20377;-74
2022/12/22 11:37:19;;;;;;;32.58;25.08;;;11.20;87.60;;;;;;10928044;32;20089;-74
2022/12/22 11:43:41;;;;;;;34.03;26.58;;;11.20;87.90;;;;;;10824015;33;20021;-74
2022/12/22 11:49:55;;;;;;;30.92;22.23;;;11.00;87.60;;;;;;10812511;32;20024;-73
2022/12/22 11:56:02;;;;;;;39.97;32.17;;;11.00;88.00;;;;;;10820620;33;20020;-74
2022/12/22 12:02:42;;;;;;;33.00;24.45;;;11.30;88.60;;;;;;10824644;33;20441;-74
2022/12/22 12:08:54;;;;;;;32.75;24.83;;;11.20;87.90;;;;;;10828120;32;20028;-74
2022/12/22 12:15:04;;;;;;;25.55;18.48;;;11.00;88.20;;;;;;10830586;32;20059;-74
2022/12/22 12:21:24;;;;;;;38.55;27.90;;;10.80;88.50;;;;;;10946405;32;20329;-74
2022/12/22 12:27:29;;;;;;;36.17;28.55;;;10.70;88.90;;;;;;10947273;32;20041;-74
2022/12/22 12:33:52;;;;;;;38.05;31.85;;;11.20;89.10;;;;;;10929208;32;20049;-74
2022/12/22 12:40:04;;;;;;;28.90;22.67;;;11.40;88.30;;;;;;10944015;32;20333;-74
2022/12/22 12:46:44;;;;;;;32.28;25.10;;;11.50;88.10;;;;;;10945810;32;20019;-74
2022/12/22 12:52:48;;;;;;;32.45;23.50;;;11.20;88.00;;;;;;10944816;32;20041;-74
2022/12/22 12:58:51;;;;;;;34.78;25.77;;;11.20;88.60;;;;;;10946084;32;20049;-74
2022/12/22 13:05:12;;;;;;;45.83;35.95;;;11.20;88.40;;;;;;10945911;32;20019;-74
2022/12/22 13:11:14;;;;;;;34.80;24.58;;;11.40;89.10;;;;;;10945296;32;20369;-74
2022/12/22 13:17:49;;;;;;;40.78;32.05;;;11.70;88.00;;;;;;10945381;32;20019;-74
2022/12/22 13:24:10;;;;;;;54.55;37.33;;;11.70;88.70;;;;;;10828996;32;20050;-74
2022/12/22 13:30:16;;;;;;;48.85;38.53;;;12.20;89.00;;;;;;10825047;33;20055;-74
2022/12/22 13:36:23;;;;;;;41.78;26.60;;;12.40;88.90;;;;;;10824453;33;20024;-74
2022/12/22 13:42:25;;;;;;;54.40;38.97;;;12.40;89.20;;;;;;10813331;32;20036;-74
2022/12/22 13:48:47;;;;;;;42.13;30.12;;;12.20;89.30;;;;;;10828037;32;20023;-73
2022/12/22 13:54:49;;;;;;;32.13;24.95;;;12.00;89.10;;;;;;10824924;32;20020;-73
2022/12/22 14:01:03;;;;;;;32.22;22.42;;;11.80;89.20;;;;;;10934166;32;20492;-73
2022/12/22 14:07:15;;;;;;;34.30;25.15;;;11.40;89.20;;;;;;10928898;32;20042;-73
2022/12/22 14:13:47;;;;;;;25.15;20.48;;;11.20;89.50;;;;;;10941968;32;20337;-74
2022/12/22 14:19:52;;;;;;;42.53;26.05;;;11.10;89.50;;;;;;10943369;32;20046;-73
2022/12/22 14:26:16;;;;;;;38.35;25.77;;;10.90;89.10;;;;;;10916574;32;20027;-74
2022/12/22 14:32:49;;;;;;;33.90;23.27;;;10.90;89.40;;;;;;10938339;32;20050;-73
2022/12/22 14:38:58;;;;;;;36.63;26.20;;;10.60;89.20;;;;;;10825779;32;20062;-74
2022/12/22 14:45:00;;;;;;;36.70;26.10;;;10.50;89.50;;;;;;10823825;32;20028;-73
2022/12/22 14:51:03;;;;;;;29.50;22.25;;;10.70;89.60;;;;;;10826142;32;20050;-74
2022/12/22 14:57:12;;;;;;;27.52;21.92;;;11.00;89.10;;;;;;10825772;32;20028;-74
2022/12/22 15:03:27;;;;;;;28.20;23.75;;;11.20;88.70;;;;;;10823109;32;20015;-74
2022/12/22 15:09:30;;;;;;;36.17;28.40;;;11.00;88.50;;;;;;10824944;32;20020;-73
2022/12/22 15:15:33;;;;;;;33.60;23.52;;;11.20;88.40;;;;;;10924525;32;20020;-74
2022/12/22 15:21:50;;;;;;;35.78;25.27;;;11.20;87.90;;;;;;10940814;32;20027;-74
2022/12/22 15:27:52;;;;;;;46.30;31.00;;;11.10;87.60;;;;;;10941563;32;20056;-74
2022/12/22 15:33:58;;;;;;;46.53;35.67;;;11.00;87.60;;;;;;10937205;32;20019;-74
2022/12/22 15:40:00;;;;;;;42.95;33.15;;;11.10;87.30;;;;;;10941954;32;20034;-74
2022/12/22 15:46:05;;;;;;;50.75;36.53;;;11.10;86.90;;;;;;10944691;32;20030;-74
2022/12/22 15:52:11;;;;;;;39.20;30.65;;;11.10;86.80;;;;;;10948709;32;20415;-74
2022/12/22 15:58:27;;;;;;;41.65;28.95;;;11.00;86.70;;;;;;10948329;32;20019;-74
2022/12/22 16:04:29;;;;;;;46.50;35.15;;;10.90;86.60;;;;;;10946549;32;20023;-74
2022/12/22 16:10:33;;;;;;;43.87;31.95;;;10.80;86.40;;;;;;10957595;32;20046;-74
2022/12/22 16:16:35;;;;;;;37.45;26.62;;;10.70;86.20;;;;;;10934259;32;20045;-74
2022/12/22 16:22:40;;;;;;;33.05;26.77;;;10.70;86.10;;;;;;10910109;27;20070;-74
2022/12/22 16:28:42;;;;;;;41.63;30.62;;;10.80;86.40;;;;;;10908503;32;20027;-74
2022/12/22 16:34:44;;;;;;;40.03;30.55;;;10.80;86.60;;;;;;10909468;32;20057;-76
2022/12/22 16:40:50;;;;;;;35.67;28.15;;;10.50;86.70;;;;;;10909143;32;20049;-76
2022/12/22 16:46:52;;;;;;;61.13;43.85;;;10.60;86.60;;;;;;10904562;32;20337;-76
2022/12/22 16:52:55;;;;;;;79.18;59.38;;;10.60;86.90;;;;;;10908388;32;20050;-76
2022/12/22 16:58:57;;;;;;;40.95;34.97;;;10.50;86.80;;;;;;10942489;32;20030;-76
2022/12/22 17:05:00;;;;;;;45.85;33.83;;;10.40;86.70;;;;;;10942270;32;20018;-76
2022/12/22 17:11:07;;;;;;;48.47;37.50;;;10.30;86.70;;;;;;10945700;32;20023;-76
2022/12/22 17:17:16;;;;;;;42.60;35.63;;;10.20;86.70;;;;;;10945640;32;20435;-76
2022/12/22 17:23:46;;;;;;;50.83;33.97;;;10.40;86.50;;;;;;10943387;32;20046;-76
2022/12/22 17:29:48;;;;;;;;;;;10.60;86.60;;;;;;10931890;32;20081;-76
2022/12/22 17:35:50;;;;;;;69.60;47.67;;;10.70;86.20;;;;;;10941401;32;19922;-76
2022/12/22 17:41:52;;;;;;;44.92;37.13;;;10.80;86.10;;;;;;10929577;32;20034;-76
2022/12/22 17:47:54;;;;;;;57.50;49.15;;;10.80;85.80;;;;;;10944418;32;20020;-76
2022/12/22 17:53:57;;;;;;;52.88;46.33;;;11.10;85.70;;;;;;10944336;32;20324;-76
2022/12/22 18:00:01;;;;;;;51.40;39.00;;;11.20;85.30;;;;;;10943901;32;20019;-76
2022/12/22 18:06:14;;;;;;;68.62;52.80;;;11.30;85.40;;;;;;10939391;32;20023;-76
2022/12/22 18:12:23;;;;;;;69.18;52.13;;;11.20;85.40;;;;;;10929914;32;20349;-76
2022/12/22 18:18:26;;;;;;;50.10;39.58;;;11.10;85.60;;;;;;10929928;32;20026;-76
2022/12/22 18:24:28;;;;;;;57.95;47.78;;;11.20;85.60;;;;;;10927355;32;20096;-76
2022/12/22 18:30:31;;;;;;;60.47;44.50;;;11.20;85.30;;;;;;10940115;32;20041;-76
2022/12/22 18:36:35;;;;;;;49.00;38.17;;;11.20;85.10;;;;;;10929256;32;20015;-76
2022/12/22 18:42:37;;;;;;;68.18;47.17;;;11.30;85.00;;;;;;10938539;32;20015;-76
2022/12/22 18:48:47;;;;;;;50.65;37.70;;;11.30;84.80;;;;;;10938922;32;20054;-76
2022/12/22 18:54:49;;;;;;;61.95;49.58;;;11.20;84.60;;;;;;10942305;32;20027;-76
2022/12/22 19:00:53;;;;;;;49.88;35.97;;;11.10;84.60;;;;;;10942071;32;20105;-75
2022/12/22 19:06:55;;;;;;;43.97;34.42;;;11.00;84.40;;;;;;10941927;32;20329;-76
2022/12/22 19:12:58;;;;;;;58.87;45.70;;;10.80;84.30;;;;;;10928657;32;20073;-76
2022/12/22 19:19:00;;;;;;;47.67;38.83;;;10.70;84.70;;;;;;10941731;32;20030;-76
2022/12/22 19:25:02;;;;;;;58.97;47.40;;;10.70;84.60;;;;;;10941364;32;20427;-76
2022/12/22 19:31:06;;;;;;;49.13;42.45;;;10.60;84.50;;;;;;10941448;32;20027;-76
2022/12/22 19:37:08;;;;;;;52.28;43.45;;;10.60;84.20;;;;;;10940009;32;20559;-76
2022/12/22 19:43:10;;;;;;;44.00;35.08;;;10.50;84.10;;;;;;10941135;32;20340;-76
2022/12/22 19:49:17;;;;;;;46.80;40.20;;;10.40;84.20;;;;;;10941120;32;20027;-76
2022/12/22 19:55:22;;;;;;;72.87;58.67;;;10.30;84.10;;;;;;10927445;32;20019;-76
2022/12/22 20:01:24;;;;;;;50.00;43.65;;;10.30;84.40;;;;;;10951849;32;20038;-76
2022/12/22 20:07:28;;;;;;;40.72;35.00;;;10.20;84.10;;;;;;10939592;32;20049;-76
2022/12/22 20:13:32;;;;;;;64.32;49.28;;;10.20;84.10;;;;;;10940465;32;20023;-76
2022/12/22 20:19:34;;;;;;;47.25;40.35;;;10.20;84.00;;;;;;10940726;32;20050;-76
2022/12/22 20:25:42;;;;;;;42.55;33.80;;;10.10;84.00;;;;;;10925391;32;20314;-76
2022/12/22 20:31:44;;;;;;;48.58;40.80;;;10.10;84.00;;;;;;10947171;32;20045;-76
2022/12/22 20:37:47;;;;;;;45.38;34.30;;;10.00;84.20;;;;;;10946728;32;20026;-76
2022/12/22 20:43:49;;;;;;;36.88;30.10;;;9.90;84.30;;;;;;10946638;32;20019;-76
2022/12/22 20:49:51;;;;;;;42.80;34.90;;;9.80;84.60;;;;;;10946557;32;20023;-76
2022/12/22 20:55:54;;;;;;;38.50;29.70;;;10.00;84.50;;;;;;10945454;32;20340;-76
2022/12/22 21:01:57;;;;;;;33.92;28.00;;;10.10;84.20;;;;;;10946161;32;20045;-76
2022/12/22 21:07:59;;;;;;;28.23;24.95;;;10.00;84.10;;;;;;10946006;32;20045;-76
2022/12/22 21:14:01;;;;;;;25.95;22.65;;;9.70;84.30;;;;;;10945824;32;20268;-76
2022/12/22 21:20:03;;;;;;;28.98;25.95;;;9.40;85.00;;;;;;10945517;32;20027;-76
2022/12/22 21:26:18;;;;;;;35.65;30.17;;;9.20;85.40;;;;;;10945421;32;20019;-76
2022/12/22 21:32:20;;;;;;;39.58;30.70;;;9.40;85.70;;;;;;10931887;32;20027;-76
2022/12/22 21:38:26;;;;;;;38.28;33.08;;;9.70;85.20;;;;;;10926127;32;20069;-76
2022/12/22 21:44:30;;;;;;;32.97;29.25;;;9.70;84.90;;;;;;10942939;32;20489;-76
2022/12/22 21:50:34;;;;;;;47.17;41.33;;;9.70;85.20;;;;;;10931204;32;20401;-76
2022/12/22 21:56:36;;;;;;;55.53;46.03;;;9.70;85.10;;;;;;10944268;32;20010;-76
2022/12/22 22:02:38;;;;;;;44.70;36.47;;;9.80;84.90;;;;;;10944048;32;20054;-76
2022/12/22 22:08:40;;;;;;;50.75;41.08;;;9.90;85.00;;;;;;10943810;32;20061;-76
2022/12/22 22:14:42;;;;;;;51.85;43.40;;;9.80;85.00;;;;;;10943630;32;20034;-76
2022/12/22 22:20:44;;;;;;;63.30;50.60;;;9.80;85.10;;;;;;10943182;32;20023;-76
2022/12/22 22:26:47;;;;;;;53.55;40.97;;;9.90;85.40;;;;;;10943200;32;20015;-76
2022/12/22 22:32:50;;;;;;;40.63;33.35;;;9.90;85.30;;;;;;10929272;32;20035;-76
2022/12/22 22:38:53;;;;;;;49.22;39.10;;;9.80;85.20;;;;;;10942781;32;20045;-76
2022/12/22 22:44:57;;;;;;;43.70;36.80;;;9.50;85.60;;;;;;10942700;32;20435;-76
2022/12/22 22:50:58;;;;;;;67.28;51.28;;;9.60;85.80;;;;;;10942106;32;20436;-76
2022/12/22 22:57:14;;;;;;;47.10;39.22;;;9.70;85.70;;;;;;10942192;32;20019;-76
2022/12/22 23:03:16;;;;;;;48.87;39.88;;;9.80;85.60;;;;;;10928480;32;20427;-76
2022/12/22 23:09:18;;;;;;;29.55;24.02;;;9.70;85.50;;;;;;10941923;32;20055;-76
2022/12/22 23:15:20;;;;;;;35.45;30.55;;;9.50;85.80;;;;;;10928418;32;20436;-76
2022/12/22 23:21:23;;;;;;;44.80;35.60;;;9.30;85.90;;;;;;10941476;32;20039;-76
2022/12/22 23:27:25;;;;;;;48.55;37.60;;;9.30;86.20;;;;;;10941609;32;20410;-76
2022/12/22 23:33:30;;;;;;;70.30;46.60;;;9.60;86.20;;;;;;10941381;32;20049;-76
2022/12/22 23:39:32;;;;;;;41.15;34.38;;;9.70;86.10;;;;;;10937214;32;20065;-76
2022/12/22 23:45:38;;;;;;;35.42;30.05;;;9.80;86.00;;;;;;10941252;32;20045;-76
2022/12/22 23:51:40;;;;;;;59.83;45.65;;;9.70;85.90;;;;;;10941226;32;20405;-73
2022/12/22 23:57:42;;;;;;;67.62;46.65;;;9.50;86.30;;;;;;10940926;32;20439;-74
